sensor_id;sensor_type;location;lat;lon;timestamp;pressure;altitude;pressure_sealevel;temperature;humidity
67818;BME280;54614;47.576;7.524;2024-02-23T00:02:12;96971.38;;;23.62;39.17
67818;BME280;54614;47.576;7.524;2024-02-23T00:04:38;96962.78;;;23.60;38.83
67818;BME280;54614;47.576;7.524;2024-02-23T00:07:04;96954.72;;;23.60;38.86
67818;BME280;54614;47.576;7.524;2024-02-23T00:09:30;96965.69;;;23.58;38.87
67818;BME280;54614;47.576;7.524;2024-02-23T00:11:56;96973.63;;;23.53;38.83
67818;BME280;54614;47.576;7.524;2024-02-23T00:14:21;96964.56;;;23.54;39.27
67818;BME280;54614;47.576;7.524;2024-02-23T00:16:47;96959.50;;;23.58;38.90
67818;BME280;54614;47.576;7.524;2024-02-23T00:19:13;96949.16;;;23.50;39.20
67818;BME280;54614;47.576;7.524;2024-02-23T00:21:39;96934.28;;;23.42;39.13
67818;BME280;54614;47.576;7.524;2024-02-23T00:24:08;96939.72;;;23.47;39.03
67818;BME280;54614;47.576;7.524;2024-02-23T00:26:33;96940.78;;;23.46;39.22
67818;BME280;54614;47.576;7.524;2024-02-23T00:28:59;96949.16;;;23.50;39.24
67818;BME280;54614;47.576;7.524;2024-02-23T00:31:25;96958.19;;;23.43;39.17
67818;BME280;54614;47.576;7.524;2024-02-23T00:33:51;96962.25;;;23.46;39.30
67818;BME280;54614;47.576;7.524;2024-02-23T00:36:16;96965.50;;;23.48;39.18
67818;BME280;54614;47.576;7.524;2024-02-23T00:38:42;96958.81;;;23.51;38.96
67818;BME280;54614;47.576;7.524;2024-02-23T00:41:09;96970.38;;;23.51;39.13
67818;BME280;54614;47.576;7.524;2024-02-23T00:43:39;96982.09;;;23.45;38.70
67818;BME280;54614;47.576;7.524;2024-02-23T00:46:05;96983.22;;;23.49;39.05
67818;BME280;54614;47.576;7.524;2024-02-23T00:48:31;96982.91;;;23.45;39.06
67818;BME280;54614;47.576;7.524;2024-02-23T00:50:56;96971.69;;;23.48;38.94
67818;BME280;54614;47.576;7.524;2024-02-23T00:53:22;96969.72;;;23.44;38.77
67818;BME280;54614;47.576;7.524;2024-02-23T00:55:48;96970.78;;;23.43;39.01
67818;BME280;54614;47.576;7.524;2024-02-23T00:58:14;96966.47;;;23.42;38.93
67818;BME280;54614;47.576;7.524;2024-02-23T01:00:41;96960.03;;;23.43;38.90
67818;BME280;54614;47.576;7.524;2024-02-23T01:03:07;96950.94;;;23.44;39.12
67818;BME280;54614;47.576;7.524;2024-02-23T01:05:33;96953.94;;;23.47;38.63
67818;BME280;54614;47.576;7.524;2024-02-23T01:07:59;96954.44;;;23.44;38.87
67818;BME280;54614;47.576;7.524;2024-02-23T01:10:26;96945.09;;;23.47;38.91
67818;BME280;54614;47.576;7.524;2024-02-23T01:12:53;96955.00;;;23.46;38.87
67818;BME280;54614;47.576;7.524;2024-02-23T01:15:18;96952.56;;;23.45;38.80
67818;BME280;54614;47.576;7.524;2024-02-23T01:17:44;96945.81;;;23.42;38.65
67818;BME280;54614;47.576;7.524;2024-02-23T01:20:11;96936.63;;;23.38;38.89
67818;BME280;54614;47.576;7.524;2024-02-23T01:22:37;96936.16;;;23.41;38.82
67818;BME280;54614;47.576;7.524;2024-02-23T01:25:03;96942.88;;;23.44;38.57
67818;BME280;54614;47.576;7.524;2024-02-23T01:27:29;96939.31;;;23.38;38.88
67818;BME280;54614;47.576;7.524;2024-02-23T01:29:55;96933.69;;;23.40;38.86
67818;BME280;54614;47.576;7.524;2024-02-23T01:32:20;96931.25;;;23.38;39.06
67818;BME280;54614;47.576;7.524;2024-02-23T01:34:46;96932.56;;;23.36;39.09
67818;BME280;54614;47.576;7.524;2024-02-23T01:37:12;96924.03;;;23.39;38.61
67818;BME280;54614;47.576;7.524;2024-02-23T01:39:38;96926.47;;;23.40;38.95
67818;BME280;54614;47.576;7.524;2024-02-23T01:42:04;96922.16;;;23.39;38.65
67818;BME280;54614;47.576;7.524;2024-02-23T01:44:30;96914.91;;;23.40;38.75
67818;BME280;54614;47.576;7.524;2024-02-23T01:46:56;96915.91;;;23.34;38.79
67818;BME280;54614;47.576;7.524;2024-02-23T01:49:22;96922.97;;;23.40;38.57
67818;BME280;54614;47.576;7.524;2024-02-23T01:51:56;96915.41;;;23.37;38.79
67818;BME280;54614;47.576;7.524;2024-02-23T01:54:23;96923.78;;;23.40;38.43
67818;BME280;54614;47.576;7.524;2024-02-23T01:56:49;96919.97;;;23.36;38.68
67818;BME280;54614;47.576;7.524;2024-02-23T01:59:15;96908.41;;;23.36;38.88
67818;BME280;54614;47.576;7.524;2024-02-23T02:01:43;96909.72;;;23.33;38.61
67818;BME280;54614;47.576;7.524;2024-02-23T02:04:09;96917.28;;;23.36;38.83
67818;BME280;54614;47.576;7.524;2024-02-23T02:06:35;96916.78;;;23.39;38.86
67818;BME280;54614;47.576;7.524;2024-02-23T02:09:02;96915.72;;;23.40;38.48
67818;BME280;54614;47.576;7.524;2024-02-23T02:11:28;96911.66;;;23.38;38.35
67818;BME280;54614;47.576;7.524;2024-02-23T02:13:54;96913.47;;;23.32;38.72
67818;BME280;54614;47.576;7.524;2024-02-23T02:16:19;96897.94;;;23.34;38.95
67818;BME280;54614;47.576;7.524;2024-02-23T02:18:45;96901.91;;;23.32;38.74
67818;BME280;54614;47.576;7.524;2024-02-23T02:21:11;96906.31;;;23.38;38.72
67818;BME280;54614;47.576;7.524;2024-02-23T02:23:38;96892.31;;;23.36;38.37
67818;BME280;54614;47.576;7.524;2024-02-23T02:26:04;96886.16;;;23.35;38.51
67818;BME280;54614;47.576;7.524;2024-02-23T02:28:30;96894.44;;;23.34;38.42
67818;BME280;54614;47.576;7.524;2024-02-23T02:30:56;96892.66;;;23.39;38.58
67818;BME280;54614;47.576;7.524;2024-02-23T02:33:23;96888.34;;;23.38;38.63
67818;BME280;54614;47.576;7.524;2024-02-23T02:35:49;96884.75;;;23.33;38.52
67818;BME280;54614;47.576;7.524;2024-02-23T02:38:18;96882.31;;;23.31;38.66
67818;BME280;54614;47.576;7.524;2024-02-23T02:40:43;96882.00;;;23.28;38.38
67818;BME280;54614;47.576;7.524;2024-02-23T02:43:09;96881.50;;;23.31;38.56
67818;BME280;54614;47.576;7.524;2024-02-23T02:45:35;96882.88;;;23.33;38.38
67818;BME280;54614;47.576;7.524;2024-02-23T02:48:01;96879.97;;;23.35;38.21
67818;BME280;54614;47.576;7.524;2024-02-23T02:50:30;96874.84;;;23.33;38.46
67818;BME280;54614;47.576;7.524;2024-02-23T02:52:56;96878.50;;;23.27;38.62
67818;BME280;54614;47.576;7.524;2024-02-23T02:55:22;96879.81;;;23.25;38.33
67818;BME280;54614;47.576;7.524;2024-02-23T02:57:47;96875.56;;;23.29;38.25
67818;BME280;54614;47.576;7.524;2024-02-23T03:00:13;96876.97;;;23.31;38.41
67818;BME280;54614;47.576;7.524;2024-02-23T03:02:39;96879.88;;;23.30;38.59
67818;BME280;54614;47.576;7.524;2024-02-23T03:05:05;96884.19;;;23.31;38.30
67818;BME280;54614;47.576;7.524;2024-02-23T03:07:31;96883.69;;;23.34;38.36
67818;BME280;54614;47.576;7.524;2024-02-23T03:09:57;96879.41;;;23.33;38.24
67818;BME280;54614;47.576;7.524;2024-02-23T03:12:23;96868.59;;;23.28;38.48
67818;BME280;54614;47.576;7.524;2024-02-23T03:14:48;96865.34;;;23.26;38.29
67818;BME280;54614;47.576;7.524;2024-02-23T03:17:15;96859.72;;;23.27;38.29
67818;BME280;54614;47.576;7.524;2024-02-23T03:19:41;96861.09;;;23.30;38.46
67818;BME280;54614;47.576;7.524;2024-02-23T03:22:07;96856.22;;;23.27;38.15
67818;BME280;54614;47.576;7.524;2024-02-23T03:24:33;96863.53;;;23.31;38.17
67818;BME280;54614;47.576;7.524;2024-02-23T03:26:59;96868.09;;;23.31;38.32
67818;BME280;54614;47.576;7.524;2024-02-23T03:29:25;96865.09;;;23.27;38.26
67818;BME280;54614;47.576;7.524;2024-02-23T03:31:55;96871.59;;;23.31;38.47
67818;BME280;54614;47.576;7.524;2024-02-23T03:34:21;96864.94;;;23.34;38.40
67818;BME280;54614;47.576;7.524;2024-02-23T03:36:47;96869.97;;;23.30;38.00
67818;BME280;54614;47.576;7.524;2024-02-23T03:39:13;96870.84;;;23.36;38.06
67818;BME280;54614;47.576;7.524;2024-02-23T03:41:39;96869.16;;;23.30;37.96
67818;BME280;54614;47.576;7.524;2024-02-23T03:44:05;96871.03;;;23.29;38.51
67818;BME280;54614;47.576;7.524;2024-02-23T03:46:31;96871.25;;;23.28;38.43
67818;BME280;54614;47.576;7.524;2024-02-23T03:48:57;96859.16;;;23.25;37.98
67818;BME280;54614;47.576;7.524;2024-02-23T03:51:23;96855.66;;;23.25;38.32
67818;BME280;54614;47.576;7.524;2024-02-23T03:53:49;96850.31;;;23.25;38.21
67818;BME280;54614;47.576;7.524;2024-02-23T03:56:16;96853.53;;;23.27;38.34
67818;BME280;54614;47.576;7.524;2024-02-23T03:58:42;96852.50;;;23.28;38.35
67818;BME280;54614;47.576;7.524;2024-02-23T04:01:07;96855.41;;;23.26;38.33
67818;BME280;54614;47.576;7.524;2024-02-23T04:03:34;96858.59;;;23.23;38.19
67818;BME280;54614;47.576;7.524;2024-02-23T04:05:59;96843.56;;;23.22;38.06
67818;BME280;54614;47.576;7.524;2024-02-23T04:08:26;96851.84;;;23.21;38.36
67818;BME280;54614;47.576;7.524;2024-02-23T04:10:51;96847.63;;;23.25;38.51
67818;BME280;54614;47.576;7.524;2024-02-23T04:13:17;96846.56;;;23.26;37.98
67818;BME280;54614;47.576;7.524;2024-02-23T04:15:46;96844.59;;;23.21;37.99
67818;BME280;54614;47.576;7.524;2024-02-23T04:18:12;96840.38;;;23.25;38.00
67818;BME280;54614;47.576;7.524;2024-02-23T04:20:38;96841.19;;;23.26;38.38
67818;BME280;54614;47.576;7.524;2024-02-23T04:23:04;96837.94;;;23.24;38.13
67818;BME280;54614;47.576;7.524;2024-02-23T04:25:30;96844.38;;;23.23;38.12
67818;BME280;54614;47.576;7.524;2024-02-23T04:27:55;96848.91;;;23.22;38.23
67818;BME280;54614;47.576;7.524;2024-02-23T04:30:21;96840.88;;;23.22;38.15
67818;BME280;54614;47.576;7.524;2024-02-23T04:32:47;96834.38;;;23.18;38.01
67818;BME280;54614;47.576;7.524;2024-02-23T04:35:13;96838.59;;;23.14;38.07
67818;BME280;54614;47.576;7.524;2024-02-23T04:37:39;96842.34;;;23.13;38.20
67818;BME280;54614;47.576;7.524;2024-02-23T04:40:06;96829.56;;;23.20;38.17
67818;BME280;54614;47.576;7.524;2024-02-23T04:42:32;96826.41;;;23.23;38.04
67818;BME280;54614;47.576;7.524;2024-02-23T04:44:58;96829.09;;;23.23;38.04
67818;BME280;54614;47.576;7.524;2024-02-23T04:47:24;96825.84;;;23.21;38.15
67818;BME280;54614;47.576;7.524;2024-02-23T04:49:49;96826.91;;;23.20;38.16
67818;BME280;54614;47.576;7.524;2024-02-23T04:52:15;96826.31;;;23.18;37.94
67818;BME280;54614;47.576;7.524;2024-02-23T04:54:41;96834.53;;;23.28;38.06
67818;BME280;54614;47.576;7.524;2024-02-23T04:57:07;96836.88;;;23.25;37.74
67818;BME280;54614;47.576;7.524;2024-02-23T04:59:33;96826.72;;;23.27;38.08
67818;BME280;54614;47.576;7.524;2024-02-23T05:01:58;96828.75;;;23.20;38.00
67818;BME280;54614;47.576;7.524;2024-02-23T05:04:24;96835.75;;;23.21;37.96
67818;BME280;54614;47.576;7.524;2024-02-23T05:06:52;96828.66;;;23.31;38.02
67818;BME280;54614;47.576;7.524;2024-02-23T05:09:18;96826.31;;;23.35;37.60
67818;BME280;54614;47.576;7.524;2024-02-23T05:11:43;96825.66;;;23.44;37.72
67818;BME280;54614;47.576;7.524;2024-02-23T05:14:11;96820.59;;;23.48;37.51
67818;BME280;54614;47.576;7.524;2024-02-23T05:16:37;96815.81;;;23.50;38.34
67818;BME280;54614;47.576;7.524;2024-02-23T05:19:14;96814.53;;;23.36;37.66
67818;BME280;54614;47.576;7.524;2024-02-23T05:21:40;96822.59;;;23.19;38.46
67818;BME280;54614;47.576;7.524;2024-02-23T05:24:06;96824.31;;;23.08;38.22
67818;BME280;54614;47.576;7.524;2024-02-23T05:26:32;96822.09;;;22.89;38.64
67818;BME280;54614;47.576;7.524;2024-02-23T05:28:57;96821.03;;;22.90;38.95
67818;BME280;54614;47.576;7.524;2024-02-23T05:31:54;96829.97;;;22.95;38.83
67818;BME280;54614;47.576;7.524;2024-02-23T05:34:20;96833.41;;;22.91;39.34
67818;BME280;54614;47.576;7.524;2024-02-23T05:36:46;96849.16;;;22.87;39.11
67818;BME280;54614;47.576;7.524;2024-02-23T05:39:13;96847.94;;;22.95;39.13
67818;BME280;54614;47.576;7.524;2024-02-23T05:41:41;96847.13;;;22.94;39.07
67818;BME280;54614;47.576;7.524;2024-02-23T05:44:07;96851.50;;;23.00;39.09
67818;BME280;54614;47.576;7.524;2024-02-23T05:46:35;96850.22;;;23.03;39.05
67818;BME280;54614;47.576;7.524;2024-02-23T05:49:02;96842.09;;;23.14;39.43
67818;BME280;54614;47.576;7.524;2024-02-23T05:51:30;96831.59;;;23.13;39.18
67818;BME280;54614;47.576;7.524;2024-02-23T05:53:57;96836.16;;;23.12;39.16
67818;BME280;54614;47.576;7.524;2024-02-23T05:56:23;96830.31;;;23.15;39.43
67818;BME280;54614;47.576;7.524;2024-02-23T05:58:52;96831.44;;;23.20;39.36
67818;BME280;54614;47.576;7.524;2024-02-23T06:01:18;96844.03;;;23.19;39.70
67818;BME280;54614;47.576;7.524;2024-02-23T06:03:45;96835.81;;;23.26;39.65
67818;BME280;54614;47.576;7.524;2024-02-23T06:06:11;96840.13;;;23.27;39.67
67818;BME280;54614;47.576;7.524;2024-02-23T06:08:37;96837.69;;;23.25;39.35
67818;BME280;54614;47.576;7.524;2024-02-23T06:11:03;96834.22;;;23.25;39.67
67818;BME280;54614;47.576;7.524;2024-02-23T06:13:33;96828.84;;;23.25;39.73
67818;BME280;54614;47.576;7.524;2024-02-23T06:15:59;96835.75;;;23.21;39.66
67818;BME280;54614;47.576;7.524;2024-02-23T06:18:25;96830.47;;;23.26;39.62
67818;BME280;54614;47.576;7.524;2024-02-23T06:20:51;96837.13;;;23.23;39.70
67818;BME280;54614;47.576;7.524;2024-02-23T06:23:17;96843.63;;;23.27;39.71
67818;BME280;54614;47.576;7.524;2024-02-23T06:25:43;96833.97;;;23.26;39.53
67818;BME280;54614;47.576;7.524;2024-02-23T06:28:12;96838.59;;;23.31;39.67
67818;BME280;54614;47.576;7.524;2024-02-23T06:30:38;96848.34;;;23.37;39.30
67818;BME280;54614;47.576;7.524;2024-02-23T06:33:05;96847.69;;;23.30;39.47
67818;BME280;54614;47.576;7.524;2024-02-23T06:35:32;96844.00;;;23.69;44.59
67818;BME280;54614;47.576;7.524;2024-02-23T06:37:57;96836.47;;;23.88;43.81
67818;BME280;54614;47.576;7.524;2024-02-23T06:40:23;96844.63;;;24.64;43.82
67818;BME280;54614;47.576;7.524;2024-02-23T06:42:50;96844.22;;;24.77;42.68
67818;BME280;54614;47.576;7.524;2024-02-23T06:45:16;96844.13;;;24.67;42.01
67818;BME280;54614;47.576;7.524;2024-02-23T06:47:44;96843.50;;;24.60;41.33
67818;BME280;54614;47.576;7.524;2024-02-23T06:50:10;96847.91;;;24.22;39.78
67818;BME280;54614;47.576;7.524;2024-02-23T06:52:36;96842.97;;;23.92;39.46
67818;BME280;54614;47.576;7.524;2024-02-23T06:55:03;96851.25;;;23.69;39.50
67818;BME280;54614;47.576;7.524;2024-02-23T06:57:29;96843.13;;;23.64;39.44
67818;BME280;54614;47.576;7.524;2024-02-23T06:59:56;96848.66;;;23.57;38.92
67818;BME280;54614;47.576;7.524;2024-02-23T07:02:22;96850.28;;;23.58;38.98
67818;BME280;54614;47.576;7.524;2024-02-23T07:04:48;96845.41;;;23.55;38.70
67818;BME280;54614;47.576;7.524;2024-02-23T07:07:14;96845.88;;;23.52;38.53
67818;BME280;54614;47.576;7.524;2024-02-23T07:09:39;96848.66;;;23.57;38.22
67818;BME280;54614;47.576;7.524;2024-02-23T07:12:06;96850.28;;;23.58;38.15
67818;BME280;54614;47.576;7.524;2024-02-23T07:14:32;96851.44;;;23.62;37.86
67818;BME280;54614;47.576;7.524;2024-02-23T07:16:58;96854.66;;;23.64;37.83
67818;BME280;54614;47.576;7.524;2024-02-23T07:19:24;96849.56;;;23.63;37.92
67818;BME280;54614;47.576;7.524;2024-02-23T07:21:50;96854.59;;;23.59;37.99
67818;BME280;54614;47.576;7.524;2024-02-23T07:24:15;96854.75;;;23.69;38.14
67818;BME280;54614;47.576;7.524;2024-02-23T07:26:41;96867.00;;;23.82;38.04
67818;BME280;54614;47.576;7.524;2024-02-23T07:29:07;96860.31;;;23.85;38.16
67818;BME280;54614;47.576;7.524;2024-02-23T07:31:33;96865.44;;;23.86;38.37
67818;BME280;54614;47.576;7.524;2024-02-23T07:33:59;96866.69;;;23.78;38.95
67818;BME280;54614;47.576;7.524;2024-02-23T07:36:24;96863.75;;;23.80;38.98
67818;BME280;54614;47.576;7.524;2024-02-23T07:38:50;96865.06;;;23.77;39.17
67818;BME280;54614;47.576;7.524;2024-02-23T07:41:17;96861.50;;;23.72;39.84
67818;BME280;54614;47.576;7.524;2024-02-23T07:43:45;96861.81;;;23.75;39.78
67818;BME280;54614;47.576;7.524;2024-02-23T07:46:12;96854.28;;;23.94;39.54
67818;BME280;54614;47.576;7.524;2024-02-23T07:48:38;96854.22;;;23.89;39.92
67818;BME280;54614;47.576;7.524;2024-02-23T07:51:05;96856.97;;;23.94;40.08
67818;BME280;54614;47.576;7.524;2024-02-23T07:53:31;96851.28;;;23.91;40.11
67818;BME280;54614;47.576;7.524;2024-02-23T07:55:59;96853.97;;;23.91;40.18
67818;BME280;54614;47.576;7.524;2024-02-23T07:58:27;96849.66;;;23.90;40.14
67818;BME280;54614;47.576;7.524;2024-02-23T08:00:53;96849.91;;;23.88;40.73
67818;BME280;54614;47.576;7.524;2024-02-23T08:03:19;96850.22;;;23.92;40.79
67818;BME280;54614;47.576;7.524;2024-02-23T08:05:45;96845.41;;;23.94;40.71
67818;BME280;54614;47.576;7.524;2024-02-23T08:08:11;96847.59;;;23.97;40.65
67818;BME280;54614;47.576;7.524;2024-02-23T08:10:36;96851.34;;;23.96;41.19
67818;BME280;54614;47.576;7.524;2024-02-23T08:13:02;96844.59;;;23.93;41.03
67818;BME280;54614;47.576;7.524;2024-02-23T08:15:28;96843.84;;;23.98;40.97
67818;BME280;54614;47.576;7.524;2024-02-23T08:17:54;96840.34;;;23.97;40.91
67818;BME280;54614;47.576;7.524;2024-02-23T08:20:20;96840.91;;;23.99;41.38
67818;BME280;54614;47.576;7.524;2024-02-23T08:22:45;96840.47;;;24.07;41.09
67818;BME280;54614;47.576;7.524;2024-02-23T08:25:11;96836.22;;;24.11;41.10
67818;BME280;54614;47.576;7.524;2024-02-23T08:27:37;96831.34;;;24.08;41.18
67818;BME280;54614;47.576;7.524;2024-02-23T08:30:03;96829.22;;;24.10;41.29
67818;BME280;54614;47.576;7.524;2024-02-23T08:32:29;96829.47;;;24.09;41.27
67818;BME280;54614;47.576;7.524;2024-02-23T08:34:55;96821.19;;;24.10;41.37
67818;BME280;54614;47.576;7.524;2024-02-23T08:37:26;96826.28;;;24.12;40.99
67818;BME280;54614;47.576;7.524;2024-02-23T08:39:52;96818.34;;;24.22;41.17
67818;BME280;54614;47.576;7.524;2024-02-23T08:42:18;96825.59;;;24.22;40.91
67818;BME280;54614;47.576;7.524;2024-02-23T08:44:44;96824.78;;;24.21;41.26
67818;BME280;54614;47.576;7.524;2024-02-23T08:47:10;96825.84;;;24.20;40.96
67818;BME280;54614;47.576;7.524;2024-02-23T08:49:36;96819.41;;;24.21;41.05
67818;BME280;54614;47.576;7.524;2024-02-23T08:52:01;96822.66;;;24.23;40.95
67818;BME280;54614;47.576;7.524;2024-02-23T08:54:28;96823.31;;;24.30;40.78
67818;BME280;54614;47.576;7.524;2024-02-23T08:56:53;96825.25;;;24.35;40.77
67818;BME280;54614;47.576;7.524;2024-02-23T08:59:19;96820.13;;;24.33;40.55
67818;BME280;54614;47.576;7.524;2024-02-23T09:01:45;96816.13;;;24.36;40.74
67818;BME280;54614;47.576;7.524;2024-02-23T09:04:13;96816.97;;;24.41;40.27
67818;BME280;54614;47.576;7.524;2024-02-23T09:06:39;96813.59;;;24.51;40.00
67818;BME280;54614;47.576;7.524;2024-02-23T09:09:05;96808.38;;;24.39;40.23
67818;BME280;54614;47.576;7.524;2024-02-23T09:11:30;96800.59;;;24.43;39.91
67818;BME280;54614;47.576;7.524;2024-02-23T09:13:56;96794.41;;;24.69;39.47
67818;BME280;54614;47.576;7.524;2024-02-23T09:16:22;96792.81;;;25.00;38.65
67818;BME280;54614;47.576;7.524;2024-02-23T09:18:50;96790.50;;;25.14;38.29
67818;BME280;54614;47.576;7.524;2024-02-23T09:21:16;96783.53;;;25.18;38.16
67818;BME280;54614;47.576;7.524;2024-02-23T09:23:42;96779.00;;;25.24;38.05
67818;BME280;54614;47.576;7.524;2024-02-23T09:26:11;96779.13;;;25.44;38.39
67818;BME280;54614;47.576;7.524;2024-02-23T09:28:37;96774.03;;;25.48;38.24
67818;BME280;54614;47.576;7.524;2024-02-23T09:31:03;96771.63;;;25.51;38.29
67818;BME280;54614;47.576;7.524;2024-02-23T09:33:30;96774.66;;;25.18;38.75
67818;BME280;54614;47.576;7.524;2024-02-23T09:35:57;96779.38;;;25.00;39.17
67818;BME280;54614;47.576;7.524;2024-02-23T09:38:24;96785.69;;;25.21;38.70
67818;BME280;54614;47.576;7.524;2024-02-23T09:40:51;96783.63;;;25.33;38.77
67818;BME280;54614;47.576;7.524;2024-02-23T09:43:20;96779.69;;;25.51;38.40
67818;BME280;54614;47.576;7.524;2024-02-23T09:45:47;96776.88;;;25.31;38.52
67818;BME280;54614;47.576;7.524;2024-02-23T09:48:16;96784.00;;;25.10;39.04
67818;BME280;54614;47.576;7.524;2024-02-23T09:50:45;96776.78;;;24.84;38.55
67818;BME280;54614;47.576;7.524;2024-02-23T09:53:13;96777.56;;;24.79;38.85
67818;BME280;54614;47.576;7.524;2024-02-23T09:55:39;96771.56;;;24.72;38.97
67818;BME280;54614;47.576;7.524;2024-02-23T09:58:07;96774.53;;;24.70;39.27
67818;BME280;54614;47.576;7.524;2024-02-23T10:00:38;96770.81;;;24.77;39.21
67818;BME280;54614;47.576;7.524;2024-02-23T10:03:05;96765.44;;;24.77;39.68
67818;BME280;54614;47.576;7.524;2024-02-23T10:05:31;96767.38;;;24.86;39.58
67818;BME280;54614;47.576;7.524;2024-02-23T10:07:58;96770.38;;;24.90;39.61
67818;BME280;54614;47.576;7.524;2024-02-23T10:10:29;96764.47;;;24.93;39.84
67818;BME280;54614;47.576;7.524;2024-02-23T10:12:58;96767.34;;;25.13;39.35
67818;BME280;54614;47.576;7.524;2024-02-23T10:15:24;96745.56;;;25.15;39.27
67818;BME280;54614;47.576;7.524;2024-02-23T10:17:50;96743.44;;;25.17;39.36
67818;BME280;54614;47.576;7.524;2024-02-23T10:20:16;96751.25;;;25.18;39.25
67818;BME280;54614;47.576;7.524;2024-02-23T10:22:43;96753.03;;;25.02;39.36
67818;BME280;54614;47.576;7.524;2024-02-23T10:25:10;96749.31;;;25.14;39.13
67818;BME280;54614;47.576;7.524;2024-02-23T10:27:36;96745.56;;;25.15;39.12
67818;BME280;54614;47.576;7.524;2024-02-23T10:30:02;96739.94;;;25.16;39.56
67818;BME280;54614;47.576;7.524;2024-02-23T10:32:30;96740.44;;;25.13;39.54
67818;BME280;54614;47.576;7.524;2024-02-23T10:35:00;96735.63;;;25.15;39.49
67818;BME280;54614;47.576;7.524;2024-02-23T10:37:31;96732.66;;;25.17;39.52
67818;BME280;54614;47.576;7.524;2024-02-23T10:39:59;96731.38;;;25.24;39.39
67818;BME280;54614;47.576;7.524;2024-02-23T10:42:33;96727.28;;;25.17;39.73
67818;BME280;54614;47.576;7.524;2024-02-23T10:45:01;96735.38;;;25.22;39.59
67818;BME280;54614;47.576;7.524;2024-02-23T10:47:30;96729.22;;;25.26;39.41
67818;BME280;54614;47.576;7.524;2024-02-23T10:50:00;96742.44;;;25.33;39.11
67818;BME280;54614;47.576;7.524;2024-02-23T10:52:27;96741.31;;;25.24;39.28
67818;BME280;54614;47.576;7.524;2024-02-23T10:54:55;96733.28;;;25.29;39.34
67818;BME280;54614;47.576;7.524;2024-02-23T10:57:21;96729.00;;;25.33;39.25
67818;BME280;54614;47.576;7.524;2024-02-23T10:59:48;96730.66;;;25.44;39.21
67818;BME280;54614;47.576;7.524;2024-02-23T11:02:18;96728.72;;;25.29;39.46
67818;BME280;54614;47.576;7.524;2024-02-23T11:04:50;96737.06;;;25.33;39.73
67818;BME280;54614;47.576;7.524;2024-02-23T11:07:19;96728.97;;;25.28;39.92
67818;BME280;54614;47.576;7.524;2024-02-23T11:09:58;96728.47;;;25.36;39.56
67818;BME280;54614;47.576;7.524;2024-02-23T11:12:26;96731.16;;;25.36;39.62
67818;BME280;54614;47.576;7.524;2024-02-23T11:14:57;96723.97;;;25.52;38.98
67818;BME280;54614;47.576;7.524;2024-02-23T11:17:30;96729.34;;;25.52;38.91
67818;BME280;54614;47.576;7.524;2024-02-23T11:19:57;96726.31;;;25.33;39.41
67818;BME280;54614;47.576;7.524;2024-02-23T11:22:29;96724.47;;;25.44;39.12
67818;BME280;54614;47.576;7.524;2024-02-23T11:25:09;96725.00;;;25.41;39.32
67818;BME280;54614;47.576;7.524;2024-02-23T11:27:37;96720.19;;;25.48;39.34
67818;BME280;54614;47.576;7.524;2024-02-23T11:30:07;96716.44;;;25.49;39.22
67818;BME280;54614;47.576;7.524;2024-02-23T11:32:47;96719.94;;;25.54;39.44
67818;BME280;54614;47.576;7.524;2024-02-23T11:35:16;96714.56;;;25.54;39.38
67818;BME280;54614;47.576;7.524;2024-02-23T11:37:49;96706.44;;;25.44;39.72
67818;BME280;54614;47.576;7.524;2024-02-23T11:40:22;96704.88;;;25.58;39.23
67818;BME280;54614;47.576;7.524;2024-02-23T11:42:48;96699.75;;;25.52;39.38
67818;BME280;54614;47.576;7.524;2024-02-23T11:45:14;96700.31;;;25.59;39.00
67818;BME280;54614;47.576;7.524;2024-02-23T11:47:39;96700.06;;;25.60;38.71
67818;BME280;54614;47.576;7.524;2024-02-23T11:50:09;96697.91;;;25.62;38.63
67818;BME280;54614;47.576;7.524;2024-02-23T11:52:39;96697.88;;;25.57;38.97
67818;BME280;54614;47.576;7.524;2024-02-23T11:55:06;96694.91;;;25.54;38.65
67818;BME280;54614;47.576;7.524;2024-02-23T11:57:34;96693.78;;;25.39;39.04
67818;BME280;54614;47.576;7.524;2024-02-23T12:00:04;96686.81;;;25.49;38.73
67818;BME280;54614;47.576;7.524;2024-02-23T12:02:35;96690.88;;;25.56;38.86
67818;BME280;54614;47.576;7.524;2024-02-23T12:05:02;96686.38;;;25.67;38.78
67818;BME280;54614;47.576;7.524;2024-02-23T12:07:32;96686.16;;;25.79;38.68
67818;BME280;54614;47.576;7.524;2024-02-23T12:09:58;96688.31;;;25.82;38.78
67818;BME280;54614;47.576;7.524;2024-02-23T12:12:27;96680.19;;;25.72;38.74
67818;BME280;54614;47.576;7.524;2024-02-23T12:14:53;96673.75;;;25.78;38.55
67818;BME280;54614;47.576;7.524;2024-02-23T12:17:19;96678.56;;;25.65;39.13
67818;BME280;54614;47.576;7.524;2024-02-23T12:19:45;96681.44;;;25.54;39.22
67818;BME280;54614;47.576;7.524;2024-02-23T12:22:11;96675.53;;;25.57;39.14
67818;BME280;54614;47.576;7.524;2024-02-23T12:24:40;96677.16;;;25.58;39.01
67818;BME280;54614;47.576;7.524;2024-02-23T12:27:07;96680.66;;;25.58;38.88
67818;BME280;54614;47.576;7.524;2024-02-23T12:29:33;96685.88;;;25.80;38.30
67818;BME280;54614;47.576;7.524;2024-02-23T12:32:08;96675.63;;;25.77;38.59
67818;BME280;54614;47.576;7.524;2024-02-23T12:34:34;96676.91;;;25.59;38.65
67818;BME280;54614;47.576;7.524;2024-02-23T12:37:02;96670.97;;;25.57;38.56
67818;BME280;54614;47.576;7.524;2024-02-23T12:39:29;96672.03;;;25.56;38.90
67818;BME280;54614;47.576;7.524;2024-02-23T12:41:55;96673.47;;;25.69;38.72
67818;BME280;54614;47.576;7.524;2024-02-23T12:44:22;96667.28;;;25.74;38.74
67818;BME280;54614;47.576;7.524;2024-02-23T12:46:48;96669.69;;;25.70;38.69
67818;BME280;54614;47.576;7.524;2024-02-23T12:49:14;96679.16;;;25.83;38.66
67818;BME280;54614;47.576;7.524;2024-02-23T12:51:41;96667.56;;;25.82;38.66
67818;BME280;54614;47.576;7.524;2024-02-23T12:54:07;96661.91;;;25.74;39.07
67818;BME280;54614;47.576;7.524;2024-02-23T12:56:33;96673.72;;;25.67;39.11
67818;BME280;54614;47.576;7.524;2024-02-23T12:58:59;96667.84;;;25.81;38.67